.
WxDataArchive / Data Records for 2008-07-20
2008-07-19 July 2008 2008-07-21

Data Records for Sunday, 20 July 2008

Time	Temp	Chill	HIndex	Humid	Dewpt	 Wind 	HiWind	WindDir	Rain 	Barom 
-----	----	-----	------	-----	-----	------	------	-------	-----	----- 
00:00	73.2	73.2	73.2	94	71.4	0	1	202	0.00	29.832 
00:05	73.2	73.2	73.2	94	71.4	0	2	202	0.00	29.832 
00:10	73.2	73.2	73.2	94	71.4	0	1	202	0.00	29.830 
00:15	73.0	73.0	73.0	94	71.2	0	1	202	0.00	29.830 
00:20	73.0	73.0	73.0	94	71.2	0	1	202	0.00	29.829 
00:25	73.2	73.2	73.2	93	71.0	0	1	202	0.00	29.829 
00:30	73.0	73.0	73.0	93	70.8	0	1	202	0.00	29.828 
00:35	73.0	73.0	73.0	93	70.8	0	1	202	0.00	29.829 
00:40	73.0	73.0	73.0	93	70.8	0	1	202	0.00	29.827 
00:45	72.8	72.8	72.8	93	70.7	0	1	202	0.00	29.830 
00:50	72.8	72.8	72.8	93	70.7	0	1	202	0.00	29.830 
00:55	72.8	72.8	72.8	93	70.7	0	1	202	0.00	29.831 
01:00	72.8	72.8	72.8	93	70.7	0	1	202	0.00	29.832 
01:05	72.8	72.8	72.8	93	70.7	0	1	202	0.00	29.834 
01:10	72.8	72.8	72.8	93	70.7	0	1	202	0.00	29.835 
01:15	72.8	72.8	72.8	93	70.7	0	2	202	0.00	29.835 
01:20	72.8	72.8	72.8	93	70.7	0	2	202	0.00	29.836 
01:25	72.8	72.8	72.8	93	70.7	0	1	202	0.00	29.835 
01:30	72.8	72.8	72.8	93	70.7	0	1	202	0.00	29.835 
01:35	72.8	72.8	72.8	93	70.7	0	1	202	0.00	29.835 
01:40	72.7	72.7	72.7	93	70.6	0	1	202	0.00	29.835 
01:45	72.7	72.7	72.7	93	70.6	0	1	202	0.00	29.834 
01:50	72.7	72.7	72.7	93	70.6	0	2	202	0.00	29.834 
01:55	72.7	72.7	72.7	93	70.6	0	1	202	0.00	29.835 
02:00	72.5	72.5	72.5	94	70.7	0	1	202	0.00	29.835 
02:05	72.5	72.5	72.5	94	70.7	0	1	202	0.00	29.837 
02:10	72.5	72.5	72.5	94	70.7	0	1	202	0.00	29.836 
02:15	72.5	72.5	72.5	94	70.7	0	1	202	0.00	29.835 
02:20	72.3	72.3	72.3	94	70.5	0	1	202	0.00	29.834 
02:25	72.3	72.3	72.3	94	70.5	0	0	---	0.00	29.835 
02:30	72.1	72.1	72.1	94	70.3	0	1	202	0.00	29.834 
02:35	72.0	72.0	72.0	94	70.2	0	0	---	0.00	29.833 
02:40	72.0	72.0	72.0	94	70.2	0	0	---	0.00	29.832 
02:45	71.8	71.8	71.8	94	70.0	0	0	---	0.00	29.832 
02:50	71.8	71.8	71.8	94	70.0	0	0	---	0.00	29.833 
02:55	71.6	71.6	71.6	94	69.8	0	0	---	0.00	29.833 
03:00	71.6	71.6	71.6	94	69.8	0	0	---	0.00	29.831 
03:05	71.5	71.5	71.5	94	69.7	0	0	---	0.00	29.826 
03:10	71.3	71.3	71.3	95	69.8	0	0	---	0.00	29.823 
03:15	71.1	71.1	71.1	95	69.6	0	0	---	0.00	29.822 
03:20	71.1	71.1	71.1	95	69.6	0	0	---	0.00	29.822 
03:25	70.9	70.9	70.9	95	69.4	0	0	---	0.00	29.822 
03:30	70.9	70.9	70.9	95	69.4	0	0	---	0.00	29.821 
03:35	70.9	70.9	70.9	95	69.4	0	0	---	0.00	29.819 
03:40	70.9	70.9	70.9	95	69.4	0	0	---	0.00	29.818 
03:45	70.9	70.9	70.9	95	69.4	0	0	---	0.00	29.818 
03:50	70.8	70.8	70.8	95	69.3	0	0	---	0.00	29.817 
03:55	70.8	70.8	70.8	95	69.3	0	0	---	0.00	29.818 
04:00	70.6	70.6	70.6	95	69.1	0	0	---	0.00	29.824 
04:05	70.6	70.6	70.6	95	69.1	0	0	---	0.00	29.823 
04:10	70.4	70.4	70.4	95	68.9	0	0	---	0.00	29.824 
04:15	70.4	70.4	70.4	95	68.9	0	0	---	0.00	29.823 
04:20	70.4	70.4	70.4	96	69.2	0	0	---	0.00	29.826 
04:25	70.4	70.4	70.4	96	69.2	0	0	---	0.00	29.825 
04:30	70.4	70.4	70.4	96	69.2	0	0	---	0.00	29.823 
04:35	70.4	70.4	70.4	96	69.2	0	0	---	0.00	29.821 
04:40	70.3	70.3	70.3	96	69.1	0	0	---	0.00	29.824 
04:45	70.3	70.3	70.3	96	69.1	0	0	---	0.00	29.828 
04:50	70.4	70.4	70.4	96	69.2	0	0	---	0.00	29.826 
04:55	70.6	70.6	70.6	96	69.4	0	0	---	0.00	29.832 
05:00	70.9	70.9	70.9	96	69.7	1	2	292	0.00	29.856 
05:05	71.1	71.1	71.1	96	69.9	4	11	292	0.27	29.900 
05:10	70.1	70.1	70.1	96	68.9	1	4	292	0.24	29.870 
05:15	69.1	69.1	69.1	96	67.9	0	1	315	0.03	29.840 
05:20	68.8	68.8	68.8	96	67.6	0	2	315	0.00	29.827 
05:25	68.6	68.6	68.6	96	67.4	0	1	315	0.01	29.803 
05:30	68.4	68.4	68.4	96	67.2	0	1	315	0.00	29.786 
05:35	68.4	68.4	68.4	96	67.2	0	1	315	0.00	29.791 
05:40	68.3	68.3	68.3	96	67.1	0	1	315	0.00	29.801 
05:45	68.3	68.3	68.3	96	67.1	0	1	315	0.00	29.796 
05:50	68.3	68.3	68.3	96	67.1	0	1	315	0.00	29.791 
05:55	68.1	68.1	68.1	96	66.9	0	1	315	0.00	29.791 
06:00	67.9	67.9	67.9	96	66.7	0	1	315	0.00	29.794 
06:05	67.9	67.9	67.9	96	66.7	0	1	315	0.00	29.803 
06:10	67.9	67.9	67.9	96	66.7	0	0	---	0.00	29.809 
06:15	67.9	67.9	67.9	96	66.7	0	1	315	0.00	29.816 
06:20	67.9	67.9	67.9	96	66.7	0	1	315	0.00	29.822 
06:25	67.9	67.9	67.9	97	67.0	0	1	315	0.00	29.824 
06:30	68.1	68.1	68.1	97	67.2	0	2	315	0.00	29.814 
06:35	68.3	68.3	68.3	97	67.4	0	1	315	0.00	29.821 
06:40	68.3	68.3	68.3	97	67.4	0	2	315	0.00	29.827 
06:45	68.4	68.4	68.4	97	67.5	0	2	292	0.00	29.833 
06:50	68.6	68.6	68.6	97	67.7	0	1	292	0.00	29.838 
06:55	68.8	68.8	68.8	97	67.9	0	1	292	0.00	29.837 
07:00	68.9	68.9	68.9	97	68.0	0	1	292	0.00	29.840 
07:05	69.1	69.1	69.1	97	68.2	0	0	---	0.00	29.839 
07:10	69.3	69.3	69.3	97	68.4	0	0	---	0.00	29.839 
07:15	69.4	69.4	69.4	97	68.5	0	1	292	0.00	29.838 
07:20	69.4	69.4	69.4	97	68.5	0	1	292	0.00	29.840 
07:25	69.6	69.6	69.6	97	68.7	0	0	---	0.00	29.840 
07:30	69.8	69.8	69.8	97	68.9	0	1	292	0.00	29.848 
07:35	69.9	69.9	69.9	97	69.0	0	0	---	0.00	29.852 
07:40	70.1	70.1	70.1	97	69.2	0	0	---	0.00	29.844 
07:45	70.3	70.3	70.3	97	69.4	0	1	292	0.00	29.848 
07:50	70.4	70.4	70.4	97	69.5	0	1	292	0.00	29.852 
07:55	70.6	70.6	70.6	97	69.7	0	1	292	0.00	29.851 
08:00	70.9	70.9	70.9	97	70.0	0	1	292	0.00	29.849 
08:05	70.9	70.9	70.9	97	70.0	1	2	292	0.00	29.855 
08:10	71.6	71.6	71.6	97	70.7	0	3	270	0.00	29.855 
08:15	72.1	72.1	72.1	97	71.2	1	2	270	0.00	29.851 
08:20	72.1	72.1	72.1	97	71.2	1	3	248	0.00	29.852 
08:25	72.1	72.1	72.1	97	71.2	1	4	248	0.00	29.852 
08:30	72.0	72.0	72.0	97	71.1	1	4	270	0.00	29.856 
08:35	72.1	72.1	72.1	97	71.2	1	3	248	0.00	29.855 
08:40	72.1	72.1	72.1	97	71.2	2	4	270	0.00	29.855 
08:45	72.5	72.5	72.5	96	71.3	1	3	270	0.00	29.861 
08:50	72.5	72.5	72.5	96	71.3	1	3	270	0.00	29.860 
08:55	72.7	72.7	72.7	96	71.5	1	4	292	0.00	29.863 
09:00	72.7	72.7	72.7	96	71.5	2	4	270	0.00	29.866 
09:05	73.2	73.2	73.2	95	71.7	2	3	270	0.00	29.865 
09:10	73.5	73.5	73.5	94	71.7	2	5	270	0.00	29.863 
09:15	74.0	74.0	74.0	93	71.8	2	4	292	0.00	29.863 
09:20	74.6	74.6	74.6	90	71.5	2	4	270	0.00	29.864 
09:25	75.1	75.1	74.7	87	71.0	3	5	270	0.00	29.859 
09:30	76.0	76.0	76.7	84	70.8	2	4	248	0.00	29.863 
09:35	76.5	76.5	77.7	82	70.6	2	4	248	0.00	29.860 
09:40	76.8	76.8	78.2	80	70.1	2	5	338	0.00	29.860 
09:45	76.8	76.8	78.3	79	69.8	2	5	315	0.00	29.859 
09:50	77.0	77.0	78.6	79	70.0	2	5	315	0.00	29.860 
09:55	77.4	77.4	79.3	78	70.0	2	3	270	0.00	29.859 
10:00	77.6	77.6	79.6	77	69.8	2	5	315	0.00	29.860 
10:05	77.9	77.9	80.1	78	70.5	1	3	248	0.00	29.858 
10:10	78.3	78.3	80.7	77	70.5	2	4	270	0.00	29.858 
10:15	78.6	78.6	81.2	76	70.4	1	5	292	0.00	29.858 
10:20	78.8	78.8	81.5	75	70.2	2	4	270	0.00	29.861 
10:25	79.0	79.0	81.7	74	70.0	2	4	315	0.00	29.863 
10:30	79.2	79.2	82.1	74	70.2	2	5	292	0.00	29.863 
10:35	79.6	79.6	82.5	72	69.8	3	6	270	0.00	29.864 
10:40	79.6	79.6	82.4	71	69.3	2	6	270	0.00	29.863 
10:45	79.9	79.9	82.9	71	69.6	2	5	315	0.00	29.863 
10:50	80.1	80.1	83.2	71	69.8	2	4	270	0.00	29.863 
10:55	80.5	80.5	83.8	70	69.8	2	4	270	0.00	29.864 
11:00	80.9	80.9	84.3	69	69.8	2	5	248	0.00	29.861 
11:05	80.7	80.7	83.7	67	68.7	2	5	270	0.00	29.861 
11:10	81.1	81.1	84.6	69	69.9	1	3	292	0.00	29.860 
11:15	81.8	81.8	85.9	69	70.6	1	3	292	0.00	29.860 
11:20	81.8	81.8	85.5	67	69.7	1	3	292	0.00	29.862 
11:25	82.0	82.0	85.4	65	69.0	2	3	292	0.00	29.862 
11:30	82.0	82.0	85.8	67	69.9	2	5	292	0.00	29.861 
11:35	82.4	82.4	86.5	67	70.3	2	5	248	0.00	29.861 
11:40	82.4	82.4	86.3	66	69.9	1	4	248	0.00	29.861 
11:45	82.4	82.4	86.1	65	69.4	2	5	270	0.00	29.860 
11:50	82.6	82.6	86.9	67	70.5	1	3	270	0.00	29.862 
11:55	82.6	82.6	86.4	65	69.6	2	5	338	0.00	29.860 
12:00	82.8	82.8	86.1	62	68.4	2	4	270	0.00	29.861 
12:05	83.2	83.2	86.7	62	68.8	2	5	270	0.00	29.859 
12:10	83.0	83.0	86.4	62	68.6	2	6	270	0.00	29.860 
12:15	83.4	83.4	87.0	62	69.0	2	5	270	0.00	29.860 
12:20	83.8	83.8	86.7	58	67.4	2	5	248	0.00	29.862 
12:25	84.1	84.1	88.0	61	69.2	2	3	292	0.00	29.861 
12:30	83.8	83.8	86.2	56	66.4	2	4	292	0.00	29.863 
12:35	83.6	83.6	86.4	58	67.2	2	5	270	0.00	29.863 
12:40	83.4	83.4	85.8	57	66.5	2	4	270	0.00	29.862 
12:45	83.6	83.6	86.1	57	66.7	2	6	270	0.00	29.862 
12:50	84.0	84.0	86.5	56	66.6	2	4	270	0.00	29.861 
12:55	84.1	84.1	86.4	55	66.2	2	4	248	0.00	29.860 
13:00	84.0	84.0	86.5	56	66.6	2	5	270	0.00	29.861 
13:05	84.0	84.0	86.3	55	66.1	2	4	315	0.00	29.862 
13:10	84.1	84.1	86.9	57	67.2	2	6	292	0.00	29.862 
13:15	84.1	84.1	86.9	57	67.2	2	4	270	0.00	29.861 
13:20	84.5	84.5	88.4	60	69.1	2	4	270	0.00	29.861 
13:25	84.7	84.7	87.6	56	67.2	2	3	270	0.00	29.859 
13:30	84.1	84.1	86.9	57	67.2	2	5	270	0.00	29.861 
13:35	84.0	84.0	86.7	57	67.1	2	5	270	0.00	29.862 
13:40	83.6	83.6	86.1	57	66.7	2	5	270	0.00	29.860 
13:45	83.4	83.4	86.1	58	67.0	2	6	315	0.00	29.860 
13:50	83.0	83.0	85.5	58	66.7	1	4	315	0.00	29.857 
13:55	83.2	83.2	86.2	60	67.8	1	3	315	0.00	29.854 
14:00	83.6	83.6	86.6	59	67.7	2	4	270	0.00	29.853 
14:05	83.6	83.6	86.6	59	67.7	2	5	270	0.00	29.856 
14:10	83.4	83.4	86.1	58	67.0	1	3	270	0.00	29.859 
14:15	83.4	83.4	86.1	58	67.0	1	4	315	0.00	29.860 
14:20	84.0	84.0	87.3	59	68.1	2	5	248	0.00	29.859 
14:25	84.0	84.0	87.0	58	67.6	2	4	270	0.00	29.859 
14:30	84.0	84.0	87.3	59	68.1	1	3	270	0.00	29.858 
14:35	84.1	84.1	87.2	58	67.7	2	5	248	0.00	29.859 
14:40	84.3	84.3	87.5	58	67.9	2	4	270	0.00	29.860 
14:45	84.3	84.3	87.5	58	67.9	2	4	270	0.00	29.858 
14:50	84.3	84.3	87.8	59	68.4	1	3	292	0.00	29.858 
14:55	84.9	84.9	88.5	58	68.4	2	4	270	0.00	29.857 
15:00	84.7	84.7	88.1	58	68.3	1	4	292	0.00	29.857 
15:05	84.3	84.3	87.8	59	68.4	2	3	315	0.00	29.856 
15:10	84.1	84.1	87.4	59	68.2	1	2	315	0.00	29.855 
15:15	84.7	84.7	88.4	59	68.8	2	4	315	0.00	29.851 
15:20	84.3	84.3	87.8	59	68.4	1	3	292	0.00	29.848 
15:25	84.3	84.3	87.8	59	68.4	2	3	270	0.00	29.847 
15:30	84.7	84.7	88.1	58	68.3	1	3	270	0.00	29.845 
15:35	84.7	84.7	88.1	58	68.3	1	4	292	0.00	29.843 
15:40	84.7	84.7	88.7	60	69.2	1	3	292	0.00	29.844 
15:45	84.9	84.9	89.1	60	69.4	1	4	292	0.00	29.844 
15:50	85.1	85.1	89.1	59	69.1	1	4	270	0.00	29.844 
15:55	85.1	85.1	89.8	61	70.1	1	4	270	0.00	29.843 
16:00	85.3	85.3	89.2	58	68.8	1	3	315	0.00	29.840 
16:05	85.3	85.3	89.2	58	68.8	1	2	315	0.00	29.835 
16:10	85.3	85.3	89.5	59	69.3	2	4	270	0.00	29.837 
16:15	85.1	85.1	88.8	58	68.6	1	4	270	0.00	29.835 
16:20	85.1	85.1	88.8	58	68.6	1	3	315	0.00	29.834 
16:25	85.5	85.5	89.5	58	69.0	1	4	315	0.00	29.834 
16:30	85.7	85.7	89.9	58	69.2	1	3	292	0.00	29.836 
16:35	85.3	85.3	89.2	58	68.8	2	4	270	0.00	29.837 
16:40	84.9	84.9	88.8	59	68.9	1	3	270	0.00	29.836 
16:45	85.1	85.1	89.1	59	69.1	1	4	270	0.00	29.834 
16:50	85.3	85.3	89.5	59	69.3	0	2	292	0.00	29.832 
16:55	85.3	85.3	89.2	58	68.8	1	3	270	0.00	29.833 
17:00	84.9	84.9	88.5	58	68.4	1	3	270	0.00	29.832 
17:05	84.5	84.5	88.1	59	68.6	0	2	270	0.00	29.834 
17:10	84.1	84.1	88.0	61	69.2	1	2	270	0.00	29.834 
17:15	83.8	83.8	87.5	61	68.9	0	2	292	0.00	29.832 
17:20	83.8	83.8	87.7	62	69.4	0	2	292	0.00	29.832 
17:25	83.8	83.8	87.7	62	69.4	1	3	292	0.00	29.830 
17:30	83.8	83.8	87.5	61	68.9	0	1	292	0.00	29.831 
17:35	83.6	83.6	87.4	62	69.2	1	4	270	0.00	29.829 
17:40	83.2	83.2	86.5	61	68.3	1	3	270	0.00	29.833 
17:45	83.0	83.0	86.4	62	68.6	1	3	270	0.00	29.833 
17:50	83.0	83.0	86.4	62	68.6	1	3	270	0.00	29.832 
17:55	83.0	83.0	86.6	63	69.1	0	2	270	0.00	29.831 
18:00	82.6	82.6	85.9	63	68.7	0	2	270	0.00	29.830 
18:05	82.6	82.6	86.2	64	69.2	0	2	292	0.00	29.831 
18:10	82.6	82.6	86.2	64	69.2	0	2	292	0.00	29.829 
18:15	82.6	82.6	86.2	64	69.2	0	1	292	0.00	29.831 
18:20	82.6	82.6	86.2	64	69.2	1	2	292	0.00	29.833 
18:25	82.8	82.8	86.5	64	69.3	0	2	292	0.00	29.835 
18:30	82.6	82.6	86.2	64	69.2	1	2	292	0.00	29.839 
18:35	82.6	82.6	86.2	64	69.2	0	1	292	0.00	29.845 
18:40	82.4	82.4	86.1	65	69.4	0	2	292	0.00	29.845 
18:45	82.4	82.4	86.3	66	69.9	0	2	292	0.00	29.849 
18:50	82.2	82.2	85.9	66	69.7	0	1	292	0.00	29.849 
18:55	82.4	82.4	86.1	65	69.4	0	2	292	0.00	29.847 
19:00	82.4	82.4	86.1	65	69.4	0	1	315	0.00	29.845 
19:05	82.4	82.4	86.3	66	69.9	0	3	292	0.00	29.841 
19:10	82.4	82.4	86.3	66	69.9	0	2	292	0.00	29.845 
19:15	82.4	82.4	86.3	66	69.9	0	2	292	0.00	29.846 
19:20	82.4	82.4	86.3	66	69.9	0	1	292	0.00	29.843 
19:25	82.4	82.4	86.3	66	69.9	0	1	292	0.00	29.839 
19:30	82.2	82.2	85.9	66	69.7	0	1	292	0.00	29.837 
19:35	82.0	82.0	85.8	67	69.9	0	1	292	0.00	29.838 
19:40	81.6	81.6	85.1	67	69.6	0	1	292	0.00	29.838 
19:45	81.4	81.4	85.0	68	69.8	0	1	292	0.00	29.839 
19:50	81.2	81.2	84.8	69	70.0	0	0	---	0.00	29.841 
19:55	81.1	81.1	84.6	69	69.9	0	1	292	0.00	29.843 
20:00	80.9	80.9	84.5	70	70.2	0	0	---	0.00	29.844 
20:05	80.5	80.5	83.8	70	69.8	0	0	---	0.00	29.843 
20:10	80.3	80.3	83.6	71	70.0	0	0	---	0.00	29.846 
20:15	80.1	80.1	83.2	71	69.8	0	1	292	0.00	29.847 
20:20	79.9	79.9	82.9	71	69.6	0	0	---	0.00	29.847 
20:25	79.8	79.8	82.7	71	69.5	0	0	---	0.00	29.847 
20:30	79.4	79.4	82.2	72	69.6	0	0	---	0.00	29.847 
20:35	79.2	79.2	82.0	73	69.8	0	0	---	0.00	29.848 
20:40	78.8	78.8	81.4	74	69.8	0	0	---	0.00	29.849 
20:45	78.5	78.5	81.0	75	69.9	0	0	---	0.00	29.849 
20:50	78.1	78.1	80.4	76	69.9	0	0	---	0.00	29.850 
20:55	77.7	77.7	79.7	77	69.9	0	0	---	0.00	29.851 
21:00	77.6	77.6	79.6	77	69.8	0	0	---	0.00	29.852 
21:05	77.4	77.4	79.3	78	70.0	0	0	---	0.00	29.849 
21:10	77.4	77.4	79.3	78	70.0	0	0	---	0.00	29.854 
21:15	77.4	77.4	79.3	78	70.0	0	0	---	0.00	29.852 
21:20	77.2	77.2	78.9	79	70.2	0	0	---	0.00	29.853 
21:25	77.0	77.0	78.6	80	70.3	0	0	---	0.00	29.855 
21:30	76.8	76.8	78.2	80	70.1	0	0	---	0.00	29.857 
21:35	76.7	76.7	78.1	80	70.0	0	0	---	0.00	29.857 
21:40	76.7	76.7	78.0	81	70.4	0	0	---	0.00	29.856 
21:45	76.5	76.5	77.7	81	70.2	0	0	---	0.00	29.860 
21:50	76.1	76.1	77.0	82	70.2	0	0	---	0.00	29.861 
21:55	76.0	76.0	76.8	82	70.1	0	0	---	0.00	29.862 
22:00	75.6	75.6	76.1	83	70.1	0	0	---	0.00	29.861 
22:05	75.4	75.4	75.7	84	70.2	0	0	---	0.00	29.860 
22:10	75.1	75.1	75.2	84	69.9	0	0	---	0.00	29.863 
22:15	74.9	74.9	74.9	85	70.1	0	0	---	0.00	29.861 
22:20	74.7	74.7	74.7	85	69.9	0	0	---	0.00	29.860 
22:25	74.4	74.4	74.4	86	69.9	0	0	---	0.00	29.860 
22:30	74.2	74.2	74.2	86	69.7	0	0	---	0.00	29.862 
22:35	74.0	74.0	74.0	87	69.9	0	0	---	0.00	29.862 
22:40	73.9	73.9	73.9	87	69.8	0	0	---	0.00	29.859 
22:45	73.7	73.7	73.7	88	69.9	0	0	---	0.00	29.860 
22:50	73.3	73.3	73.3	88	69.5	0	0	---	0.00	29.861 
22:55	73.2	73.2	73.2	88	69.4	0	0	---	0.00	29.857 
23:00	73.0	73.0	73.0	88	69.2	0	0	---	0.00	29.857 
23:05	73.0	73.0	73.0	89	69.6	0	0	---	0.00	29.853 
23:10	72.8	72.8	72.8	89	69.4	0	0	---	0.00	29.849 
23:15	72.7	72.7	72.7	89	69.3	0	0	---	0.00	29.848 
23:20	72.3	72.3	72.3	90	69.2	0	0	---	0.00	29.849 
23:25	72.1	72.1	72.1	90	69.0	0	0	---	0.00	29.848 
23:30	72.0	72.0	72.0	90	68.9	0	0	---	0.00	29.848 
23:35	72.0	72.0	72.0	91	69.2	0	0	---	0.00	29.847 
23:40	71.8	71.8	71.8	91	69.0	0	0	---	0.00	29.848 
23:45	71.6	71.6	71.6	91	68.8	0	0	---	0.00	29.850 
23:50	71.5	71.5	71.5	91	68.7	0	0	---	0.00	29.850 
23:55	71.3	71.3	71.3	92	68.8	0	0	---	0.00	29.851 

CoCoRaHS
IN-AL-39
A2 Web Hosting
Creative Commons License
GoDaddy
Look for:

loaded 2017-12-12 01:51:47 • last modified 2010-11-18 10:43:29
Privacy PolicyDisclaimer
• wx.awcolley.com is powered by PmWiki v.2002016 •
• all content (unless otherwise noted) © 2017 A W Colley